createdAt,value
2022-08-19T00:02:10.055Z,81.04
2022-08-19T00:04:39.346Z,81.05
2022-08-19T00:07:09.887Z,81.56
2022-08-19T00:09:40.545Z,81.28
2022-08-19T00:12:10.125Z,81.68
2022-08-19T00:14:40.214Z,81.66
2022-08-19T00:17:10.793Z,81.86
2022-08-19T00:19:41.644Z,81.67
2022-08-19T00:22:10.957Z,81.84
2022-08-19T00:24:42.197Z,81.73
2022-08-19T00:27:25.840Z,82.04
2022-08-19T00:29:56.588Z,82.20
2022-08-19T00:32:27.208Z,81.99
2022-08-19T00:34:56.473Z,82.10
2022-08-19T00:37:27.633Z,82.34
2022-08-19T00:39:58.750Z,82.20
2022-08-19T00:42:30.121Z,82.45
2022-08-19T00:44:59.581Z,82.21
2022-08-19T00:47:28.919Z,81.87
2022-08-19T00:50:00.739Z,82.31
2022-08-19T00:52:34.377Z,82.10
2022-08-19T00:55:09.058Z,82.15
2022-08-19T00:57:41.013Z,82.56
2022-08-19T01:00:13.990Z,82.48
2022-08-19T01:02:44.226Z,82.06
2022-08-19T01:05:16.008Z,82.10
2022-08-19T01:07:45.520Z,82.08
2022-08-19T01:10:20.170Z,81.95
2022-08-19T01:12:50.895Z,81.61
2022-08-19T01:15:23.723Z,82.05
2022-08-19T01:17:55.427Z,82.14
2022-08-19T01:20:25.992Z,82.45
2022-08-19T01:22:59.216Z,82.42
2022-08-19T01:25:34.496Z,82.39
2022-08-19T01:28:10.532Z,82.34
2022-08-19T01:30:44.377Z,82.25
2022-08-19T01:33:21.006Z,82.28
2022-08-19T01:35:51.415Z,81.99
2022-08-19T01:38:27.371Z,82.05
2022-08-19T01:40:56.911Z,82.21
2022-08-19T01:43:26.163Z,82.16
2022-08-19T01:45:55.466Z,82.32
2022-08-19T01:48:25.001Z,82.34
2022-08-19T01:50:54.311Z,82.41
2022-08-19T01:53:26.726Z,82.62
2022-08-19T01:56:03.966Z,82.61
2022-08-19T01:58:38.097Z,82.53
2022-08-19T02:01:10.234Z,82.78
2022-08-19T02:03:39.527Z,82.94
2022-08-19T02:06:09.312Z,82.80
2022-08-19T02:08:42.495Z,82.75
2022-08-19T02:11:19.649Z,83.03
2022-08-19T02:13:50.370Z,82.64
2022-08-19T02:16:20.651Z,82.88
2022-08-19T02:18:50.304Z,82.93
2022-08-19T02:21:20.785Z,82.75
2022-08-19T02:23:52.904Z,82.54
2022-08-19T02:26:22.213Z,82.74
2022-08-19T02:28:51.665Z,82.84
2022-08-19T02:31:25.680Z,82.87
2022-08-19T02:33:56.542Z,82.84
2022-08-19T02:36:27.463Z,83.08
2022-08-19T02:38:57.350Z,83.00
2022-08-19T02:41:31.629Z,82.86
2022-08-19T02:44:28.853Z,83.01
2022-08-19T02:46:52.762Z,82.98
2022-08-19T02:49:22.726Z,82.99
2022-08-19T02:51:51.979Z,82.90
2022-08-19T02:54:23.256Z,83.00
2022-08-19T02:56:52.774Z,82.95
2022-08-19T02:59:23.039Z,82.91
2022-08-19T03:01:52.549Z,82.99
2022-08-19T03:04:24.093Z,83.28
2022-08-19T03:06:53.626Z,83.00
2022-08-19T03:09:24.309Z,82.99
2022-08-19T03:11:53.826Z,82.72
2022-08-19T03:14:24.189Z,82.93
2022-08-19T03:16:54.819Z,83.01
2022-08-19T03:19:24.397Z,83.09
2022-08-19T03:21:54.545Z,83.15
2022-08-19T03:24:25.572Z,83.01
2022-08-19T03:26:58.681Z,83.15
2022-08-19T03:29:30.551Z,83.41
2022-08-19T03:32:01.917Z,82.99
2022-08-19T03:34:35.795Z,83.25
2022-08-19T03:37:08.802Z,83.15
2022-08-19T03:39:41.316Z,83.34
2022-08-19T03:42:41.830Z,83.28
2022-08-19T03:45:02.774Z,83.61
2022-08-19T03:47:32.516Z,83.36
2022-08-19T03:50:01.821Z,83.59
2022-08-19T03:52:31.043Z,83.59
2022-08-19T03:55:01.951Z,83.29
2022-08-19T03:57:31.920Z,83.60
2022-08-19T04:00:12.522Z,83.47
2022-08-19T04:02:58.786Z,83.64
2022-08-19T04:05:31.134Z,83.46
2022-08-19T04:08:00.554Z,83.29
2022-08-19T04:10:31.390Z,83.22
2022-08-19T04:13:00.900Z,83.52
2022-08-19T04:15:34.521Z,83.55
2022-08-19T04:18:05.601Z,83.68
2022-08-19T04:20:34.841Z,83.59
2022-08-19T04:23:04.344Z,83.84
2022-08-19T04:25:40.238Z,83.78
2022-08-19T04:28:10.686Z,83.53
2022-08-19T04:30:44.167Z,83.64
2022-08-19T04:33:16.564Z,83.78
2022-08-19T04:35:49.838Z,83.76
2022-08-19T04:38:20.621Z,83.55
2022-08-19T04:41:10.779Z,83.57
2022-08-19T04:43:41.433Z,83.68
2022-08-19T04:46:12.511Z,83.72
2022-08-19T04:49:10.500Z,83.66
2022-08-19T04:51:44.223Z,83.86
2022-08-19T04:54:15.690Z,83.44
2022-08-19T04:57:07.754Z,83.52
2022-08-19T04:59:38.064Z,83.26
2022-08-19T05:02:08.720Z,82.98
2022-08-19T05:04:40.230Z,83.13
2022-08-19T05:07:10.926Z,82.59
2022-08-19T05:09:57.725Z,82.63
2022-08-19T05:12:30.624Z,82.48
2022-08-19T05:15:01.342Z,82.55
2022-08-19T05:17:36.060Z,82.73
2022-08-19T05:20:26.036Z,82.60
2022-08-19T05:22:55.811Z,82.59
2022-08-19T05:25:26.743Z,82.81
2022-08-19T05:27:57.786Z,82.49
2022-08-19T05:30:46.187Z,82.25
2022-08-19T05:33:16.628Z,82.55
2022-08-19T05:35:47.179Z,82.46
2022-08-19T05:38:16.673Z,82.24
2022-08-19T05:40:50.434Z,82.12
2022-08-19T05:43:21.457Z,82.09
2022-08-19T05:45:51.653Z,81.92
2022-08-19T05:48:21.485Z,81.85
2022-08-19T05:50:51.922Z,82.17
2022-08-19T05:53:21.660Z,82.06
2022-08-19T05:55:50.995Z,81.98
2022-08-19T05:58:23.135Z,81.49
2022-08-19T06:00:55.796Z,81.64
2022-08-19T06:03:25.135Z,81.55
2022-08-19T06:05:55.295Z,81.61
2022-08-19T06:08:34.344Z,81.45
2022-08-19T06:11:19.195Z,81.73
2022-08-19T06:13:52.060Z,81.58
2022-08-19T06:16:29.916Z,81.54
2022-08-19T06:19:01.839Z,81.49
2022-08-19T06:21:32.574Z,81.13
2022-08-19T06:24:03.367Z,81.24
2022-08-19T06:26:33.222Z,81.21
2022-08-19T06:29:04.360Z,80.82
2022-08-19T06:31:35.031Z,80.60
2022-08-19T06:34:05.594Z,80.80
2022-08-19T06:36:37.858Z,80.50
2022-08-19T06:39:09.511Z,80.60
2022-08-19T06:41:47.129Z,80.87
2022-08-19T06:44:22.744Z,80.45
2022-08-19T06:46:56.010Z,80.36
2022-08-19T06:49:31.879Z,80.06
2022-08-19T06:52:03.087Z,80.03
2022-08-19T06:54:32.478Z,79.88
2022-08-19T06:57:17.046Z,79.85
2022-08-19T06:59:47.834Z,79.74
2022-08-19T07:04:47.586Z,79.65
2022-08-19T07:07:21.036Z,79.39
2022-08-19T07:09:59.197Z,79.35
2022-08-19T07:12:35.650Z,79.32
2022-08-19T07:15:10.889Z,78.73
2022-08-19T07:17:41.815Z,78.50
2022-08-19T07:20:13.126Z,78.08
2022-08-19T07:22:42.712Z,78.33
2022-08-19T07:25:14.240Z,78.74
2022-08-19T07:27:46.279Z,78.43
2022-08-19T07:30:17.518Z,77.89
2022-08-19T07:32:47.061Z,77.75
2022-08-19T07:35:20.511Z,78.04
2022-08-19T07:37:50.202Z,77.97
2022-08-19T07:40:19.530Z,77.92
2022-08-19T07:42:48.945Z,77.66
2022-08-19T07:45:20.026Z,77.84
2022-08-19T07:47:51.356Z,76.97
2022-08-19T07:50:22.614Z,77.06
2022-08-19T07:52:52.770Z,77.39
2022-08-19T07:55:41.578Z,77.03
2022-08-19T07:58:12.527Z,76.39
2022-08-19T08:00:43.662Z,76.79
2022-08-19T08:03:13.701Z,76.34
2022-08-19T08:06:00.918Z,77.15
2022-08-19T08:08:59.992Z,76.45
2022-08-19T08:11:29.710Z,76.78
2022-08-19T08:14:00.881Z,76.18
2022-08-19T08:16:39.594Z,76.38
2022-08-19T08:19:25.696Z,76.45
2022-08-19T08:21:56.567Z,76.46
2022-08-19T08:24:28.373Z,76.01
2022-08-19T08:26:59.957Z,76.13
2022-08-19T08:29:34.791Z,76.04
2022-08-19T08:32:14.197Z,75.48
2022-08-19T08:34:44.606Z,75.15
2022-08-19T08:37:16.973Z,74.31
2022-08-19T08:39:46.353Z,74.02
2022-08-19T08:42:28.102Z,73.81
2022-08-19T08:45:02.916Z,73.68
2022-08-19T08:47:42.087Z,73.46
2022-08-19T08:50:16.914Z,73.36
2022-08-19T08:52:51.299Z,72.77
2022-08-19T08:55:25.289Z,71.76
2022-08-19T08:57:58.702Z,72.50
2022-08-19T09:00:29.852Z,71.98
2022-08-19T09:03:02.556Z,71.87
2022-08-19T09:05:48.618Z,71.40
2022-08-19T09:08:27.569Z,70.38
2022-08-19T09:10:58.712Z,70.42
2022-08-19T09:13:37.872Z,70.23
2022-08-19T09:16:12.442Z,69.86
2022-08-19T09:18:45.569Z,70.04
2022-08-19T09:21:20.893Z,69.61
2022-08-19T09:23:52.940Z,69.55
2022-08-19T09:26:24.444Z,69.01
2022-08-19T09:29:13.973Z,69.03
2022-08-19T09:31:43.352Z,69.21
2022-08-19T09:34:21.144Z,68.34
2022-08-19T09:36:54.137Z,68.88
2022-08-19T09:39:24.640Z,67.93
2022-08-19T09:41:55.113Z,67.36
2022-08-19T09:44:27.525Z,66.86
2022-08-19T09:46:57.125Z,66.82
2022-08-19T09:49:28.031Z,66.11
2022-08-19T09:51:58.167Z,65.90
2022-08-19T09:54:27.981Z,65.17
2022-08-19T09:57:03.752Z,65.08
2022-08-19T09:59:37.949Z,65.34
2022-08-19T10:02:10.690Z,66.09
2022-08-19T10:04:59.637Z,63.72
2022-08-19T10:07:36.470Z,63.33
2022-08-19T10:10:07.758Z,63.66
2022-08-19T10:12:37.934Z,62.98
2022-08-19T10:15:08.884Z,63.64
2022-08-19T10:17:40.963Z,63.34
2022-08-19T10:20:19.204Z,62.98
2022-08-19T10:22:48.602Z,63.01
2022-08-19T10:25:21.576Z,60.86
2022-08-19T10:27:51.421Z,59.82
2022-08-19T10:30:21.107Z,59.83
2022-08-19T10:32:50.466Z,59.18
2022-08-19T10:35:22.208Z,59.52
2022-08-19T10:37:57.397Z,59.84
2022-08-19T10:40:30.119Z,59.95
2022-08-19T10:42:59.742Z,58.27
2022-08-19T10:45:29.092Z,57.18
2022-08-19T10:47:59.028Z,57.28
2022-08-19T10:50:48.272Z,57.88
2022-08-19T10:53:18.084Z,58.20
2022-08-19T10:56:05.533Z,58.27
2022-08-19T10:58:34.819Z,58.41
2022-08-19T11:01:04.515Z,58.52
2022-08-19T11:03:33.901Z,58.68
2022-08-19T11:06:06.489Z,58.86
2022-08-19T11:08:38.546Z,55.85
2022-08-19T11:11:08.895Z,51.82
2022-08-19T11:13:40.838Z,48.19
2022-08-19T11:16:14.327Z,47.00
2022-08-19T11:18:49.276Z,46.97
2022-08-19T11:21:22.633Z,48.41
2022-08-19T11:23:55.304Z,49.43
2022-08-19T11:26:25.375Z,50.63
2022-08-19T11:28:55.541Z,51.34
2022-08-19T11:31:28.903Z,51.93
2022-08-19T11:34:00.614Z,52.78
2022-08-19T11:36:32.372Z,52.78
2022-08-19T11:39:02.960Z,53.53
2022-08-19T11:41:32.269Z,53.52
2022-08-19T11:44:03.921Z,54.25
2022-08-19T11:46:34.070Z,54.49
2022-08-19T11:49:07.137Z,54.73
2022-08-19T11:51:40.826Z,54.99
2022-08-19T11:54:10.351Z,54.96
2022-08-19T11:56:41.306Z,54.31
2022-08-19T11:59:14.585Z,54.05
2022-08-19T12:01:44.951Z,54.04
2022-08-19T12:04:14.392Z,54.46
2022-08-19T12:06:44.847Z,54.52
2022-08-19T12:09:16.511Z,54.17
2022-08-19T12:11:46.429Z,54.32
2022-08-19T12:14:16.879Z,54.34
2022-08-19T12:16:51.400Z,53.98
2022-08-19T12:19:22.737Z,53.98
2022-08-19T12:21:56.473Z,52.92
2022-08-19T12:24:26.764Z,53.46
2022-08-19T12:26:56.465Z,52.45
2022-08-19T12:29:31.774Z,51.88
2022-08-19T12:32:03.923Z,51.30
2022-08-19T12:34:35.267Z,51.69
2022-08-19T12:37:08.028Z,51.24
2022-08-19T12:39:43.514Z,48.61
2022-08-19T12:42:14.298Z,49.32
2022-08-19T12:44:45.259Z,49.14
2022-08-19T12:47:15.797Z,49.28
2022-08-19T12:49:53.979Z,49.05
2022-08-19T12:52:28.272Z,49.58
2022-08-19T12:54:58.762Z,50.08
2022-08-19T12:57:32.745Z,50.09
2022-08-19T13:00:10.338Z,50.02
2022-08-19T13:02:39.810Z,50.59
2022-08-19T13:05:12.485Z,50.79
2022-08-19T13:07:44.797Z,50.85
2022-08-19T13:10:17.218Z,51.02
2022-08-19T13:12:48.109Z,50.86
2022-08-19T13:15:23.846Z,50.65
2022-08-19T13:17:56.802Z,51.10
2022-08-19T13:20:27.634Z,50.94
2022-08-19T13:22:59.300Z,51.21
2022-08-19T13:25:29.021Z,51.19
2022-08-19T13:27:58.498Z,51.58
2022-08-19T13:30:45.292Z,50.60
2022-08-19T13:33:16.463Z,50.67
2022-08-19T13:35:51.317Z,50.54
2022-08-19T13:38:23.760Z,50.97
2022-08-19T13:40:56.968Z,50.93
2022-08-19T13:43:28.893Z,50.84
2022-08-19T13:45:58.350Z,51.21
2022-08-19T13:48:28.791Z,51.22
2022-08-19T13:50:59.667Z,51.03
2022-08-19T13:53:31.266Z,50.63
2022-08-19T13:56:00.579Z,50.74
2022-08-19T13:58:30.521Z,50.70
2022-08-19T14:01:00.471Z,50.51
2022-08-19T14:03:30.397Z,50.70
2022-08-19T14:06:00.951Z,50.96
2022-08-19T14:08:33.377Z,51.14
2022-08-19T14:11:06.536Z,51.46
2022-08-19T14:13:36.191Z,51.25
2022-08-19T14:16:09.075Z,51.67
2022-08-19T14:18:40.646Z,51.65
2022-08-19T14:21:15.894Z,51.56
2022-08-19T14:23:47.148Z,50.77
2022-08-19T14:26:18.867Z,51.06
2022-08-19T14:28:48.817Z,51.08
2022-08-19T14:31:20.846Z,51.29
2022-08-19T14:33:51.380Z,51.27
2022-08-19T14:36:22.768Z,51.51
2022-08-19T14:38:53.408Z,51.72
2022-08-19T14:41:25.470Z,51.92
2022-08-19T14:43:56.110Z,51.66
2022-08-19T14:46:29.495Z,51.50
2022-08-19T14:49:09.620Z,51.66
2022-08-19T14:51:42.942Z,52.00
2022-08-19T14:54:13.642Z,52.42
2022-08-19T14:56:43.380Z,52.54
2022-08-19T14:59:12.770Z,52.12
2022-08-19T15:01:42.354Z,52.68
2022-08-19T15:04:12.123Z,52.57
2022-08-19T15:06:43.344Z,52.53
2022-08-19T15:09:14.348Z,52.22
2022-08-19T15:11:44.637Z,52.12
2022-08-19T15:14:16.206Z,52.30
2022-08-19T15:16:45.558Z,52.50
2022-08-19T15:19:15.002Z,52.63
2022-08-19T15:21:44.374Z,52.80
2022-08-19T15:24:15.056Z,53.34
2022-08-19T15:26:45.056Z,53.10
2022-08-19T15:29:15.506Z,53.15
2022-08-19T15:31:46.035Z,53.70
2022-08-19T15:34:18.754Z,53.73
2022-08-19T15:36:48.052Z,53.87
2022-08-19T15:39:19.510Z,54.17
2022-08-19T15:41:49.435Z,54.42
2022-08-19T15:44:22.262Z,54.39
2022-08-19T15:46:51.822Z,54.23
2022-08-19T15:49:30.784Z,53.96
2022-08-19T15:52:01.587Z,54.17
2022-08-19T15:54:32.503Z,54.32
2022-08-19T15:57:19.793Z,53.92
2022-08-19T16:00:06.691Z,52.74
2022-08-19T16:02:54.255Z,52.64
2022-08-19T16:05:43.522Z,51.00
2022-08-19T16:08:12.950Z,51.58
2022-08-19T16:10:43.622Z,50.48
2022-08-19T16:13:12.941Z,50.75
2022-08-19T16:15:44.545Z,50.98
2022-08-19T16:18:13.824Z,50.70
2022-08-19T16:20:44.329Z,50.41
2022-08-19T16:23:14.054Z,50.59
2022-08-19T16:25:44.739Z,51.11
2022-08-19T16:28:14.538Z,51.41
2022-08-19T16:30:48.551Z,51.64
2022-08-19T16:33:23.004Z,51.36
2022-08-19T16:36:00.557Z,51.78
2022-08-19T16:38:37.574Z,51.51
2022-08-19T16:41:08.808Z,51.91
2022-08-19T16:43:39.045Z,52.38
2022-08-19T16:46:09.624Z,52.84
2022-08-19T16:48:43.005Z,53.18
2022-08-19T16:51:14.130Z,53.11
2022-08-19T16:53:45.287Z,53.06
2022-08-19T16:56:16.353Z,53.07
2022-08-19T16:58:45.598Z,53.31
2022-08-19T17:01:15.328Z,53.74
2022-08-19T17:03:45.316Z,53.52
2022-08-19T17:06:19.052Z,53.43
2022-08-19T17:08:51.262Z,54.05
2022-08-19T17:11:23.376Z,54.39
2022-08-19T17:13:53.792Z,54.08
2022-08-19T17:16:26.231Z,54.75
2022-08-19T17:18:57.365Z,54.61
2022-08-19T17:21:29.518Z,54.94
2022-08-19T17:23:59.490Z,54.76
2022-08-19T17:26:33.141Z,54.97
2022-08-19T17:29:02.732Z,55.26
2022-08-19T17:31:33.369Z,55.82
2022-08-19T17:34:03.697Z,55.77
2022-08-19T17:36:35.108Z,56.21
2022-08-19T17:39:06.547Z,56.14
2022-08-19T17:41:37.444Z,56.54
2022-08-19T17:44:06.975Z,56.55
2022-08-19T17:46:36.774Z,56.55
2022-08-19T17:49:06.756Z,56.80
2022-08-19T17:51:45.509Z,56.92
2022-08-19T17:54:18.656Z,57.25
2022-08-19T17:56:49.673Z,57.58
2022-08-19T17:59:19.207Z,57.83
2022-08-19T18:01:53.630Z,57.81
2022-08-19T18:04:25.979Z,57.80
2022-08-19T18:06:56.098Z,57.99
2022-08-19T18:09:27.062Z,58.06
2022-08-19T18:11:59.466Z,58.40
2022-08-19T18:14:34.334Z,58.22
2022-08-19T18:17:09.216Z,58.78
2022-08-19T18:19:41.314Z,58.38
2022-08-19T18:22:13.690Z,58.63
2022-08-19T18:24:45.840Z,58.54
2022-08-19T18:27:17.121Z,58.54
2022-08-19T18:29:46.883Z,58.66
2022-08-19T18:32:23.765Z,58.99
2022-08-19T18:34:54.752Z,59.05
2022-08-19T18:37:25.844Z,59.41
2022-08-19T18:40:12.924Z,59.57
2022-08-19T18:43:18.365Z,59.60
2022-08-19T18:46:07.259Z,59.37
2022-08-19T18:48:54.436Z,59.79
2022-08-19T18:51:28.127Z,59.77
2022-08-19T18:53:59.010Z,60.02
2022-08-19T18:56:31.855Z,60.05
2022-08-19T18:59:03.129Z,59.77
2022-08-19T19:01:35.554Z,60.06
2022-08-19T19:04:10.630Z,60.22
2022-08-19T19:06:43.589Z,60.34
2022-08-19T19:09:15.443Z,60.38
2022-08-19T19:11:47.160Z,60.20
2022-08-19T19:14:46.042Z,60.31
2022-08-19T19:17:15.543Z,60.05
2022-08-19T19:19:45.706Z,59.74
2022-08-19T19:22:19.974Z,60.07
2022-08-19T19:24:50.823Z,59.84
2022-08-19T19:27:21.757Z,60.08
2022-08-19T19:29:53.026Z,60.24
2022-08-19T19:32:26.181Z,60.45
2022-08-19T19:34:55.929Z,60.49
2022-08-19T19:37:25.522Z,60.10
2022-08-19T19:39:54.852Z,60.42
2022-08-19T19:42:25.387Z,60.06
2022-08-19T19:44:57.715Z,60.59
2022-08-19T19:47:28.479Z,60.40
2022-08-19T19:50:13.709Z,60.90
2022-08-19T19:52:45.481Z,60.45
2022-08-19T19:55:18.417Z,60.82
2022-08-19T19:57:49.173Z,60.54
2022-08-19T20:00:21.302Z,60.47
2022-08-19T20:02:51.172Z,60.51
2022-08-19T20:05:21.943Z,61.01
2022-08-19T20:08:24.581Z,60.73
2022-08-19T20:10:54.227Z,60.77
2022-08-19T20:13:23.721Z,60.70
2022-08-19T20:15:54.443Z,60.91
2022-08-19T20:18:24.438Z,60.63
2022-08-19T20:20:54.268Z,61.19
2022-08-19T20:23:24.655Z,61.38
2022-08-19T20:25:55.792Z,61.49
2022-08-19T20:28:25.167Z,61.71
2022-08-19T20:30:56.827Z,61.63
2022-08-19T20:33:28.614Z,61.71
2022-08-19T20:35:58.732Z,61.53
2022-08-19T20:38:28.373Z,61.88
2022-08-19T20:40:57.822Z,61.59
2022-08-19T20:43:27.167Z,61.78
2022-08-19T20:45:58.259Z,61.56
2022-08-19T20:48:27.698Z,61.41
2022-08-19T20:50:57.505Z,61.43
2022-08-19T20:53:28.258Z,61.26
2022-08-19T20:55:59.952Z,61.53
2022-08-19T20:58:29.698Z,61.55
2022-08-19T21:01:01.605Z,61.54
2022-08-19T21:03:34.378Z,61.52
2022-08-19T21:06:14.381Z,61.44
2022-08-19T21:08:43.724Z,61.47
2022-08-19T21:11:14.830Z,61.49
2022-08-19T21:13:50.090Z,61.14
2022-08-19T21:16:21.181Z,61.52
2022-08-19T21:18:50.697Z,61.27
2022-08-19T21:21:20.314Z,61.26
2022-08-19T21:23:49.905Z,61.55
2022-08-19T21:26:19.175Z,61.08
2022-08-19T21:28:48.512Z,61.07
2022-08-19T21:31:18.128Z,61.19
2022-08-19T21:33:48.880Z,61.20
2022-08-19T21:36:18.476Z,61.64
2022-08-19T21:38:47.761Z,61.55
2022-08-19T21:41:17.004Z,61.92
2022-08-19T21:43:46.465Z,61.96
2022-08-19T21:46:16.419Z,62.21
2022-08-19T21:48:48.996Z,62.07
2022-08-19T21:51:18.682Z,62.41
2022-08-19T21:53:52.957Z,62.60
2022-08-19T21:56:23.430Z,62.36
2022-08-19T21:58:55.576Z,62.58
2022-08-19T22:01:25.841Z,62.89
2022-08-19T22:03:56.617Z,62.90
2022-08-19T22:06:26.866Z,63.23
2022-08-19T22:08:56.571Z,63.28
2022-08-19T22:11:26.694Z,63.52
2022-08-19T22:13:56.616Z,63.53
2022-08-19T22:16:26.411Z,63.40
2022-08-19T22:18:57.403Z,63.35
2022-08-19T22:21:31.351Z,63.46
2022-08-19T22:24:10.654Z,63.73
2022-08-19T22:26:40.706Z,63.67
2022-08-19T22:29:10.457Z,63.80
2022-08-19T22:31:45.678Z,63.89
2022-08-19T22:34:25.962Z,63.63
2022-08-19T22:36:55.489Z,63.75
2022-08-19T22:39:24.729Z,63.85
2022-08-19T22:41:55.169Z,63.96
2022-08-19T22:44:24.933Z,64.01
2022-08-19T22:46:54.418Z,64.03
2022-08-19T22:49:25.352Z,63.97
2022-08-19T22:52:12.469Z,64.07
2022-08-19T22:54:41.756Z,64.00
2022-08-19T22:57:11.392Z,63.84
2022-08-19T22:59:40.970Z,63.63
2022-08-19T23:02:12.128Z,63.83
2022-08-19T23:04:43.165Z,64.07
2022-08-19T23:07:12.521Z,64.19
2022-08-19T23:09:41.864Z,63.96
2022-08-19T23:12:13.914Z,63.97
2022-08-19T23:14:44.302Z,64.04
2022-08-19T23:17:14.197Z,64.10
2022-08-19T23:19:44.870Z,63.85
2022-08-19T23:22:18.296Z,63.83
2022-08-19T23:24:47.576Z,64.04
2022-08-19T23:27:34.615Z,63.99
2022-08-19T23:30:21.624Z,64.06
2022-08-19T23:32:52.366Z,63.68
2022-08-19T23:35:23.537Z,63.67
2022-08-19T23:37:53.610Z,63.60
2022-08-19T23:40:22.780Z,63.40
2022-08-19T23:42:52.847Z,63.52
2022-08-19T23:45:26.042Z,63.63
2022-08-19T23:47:55.977Z,63.48
2022-08-19T23:50:28.553Z,63.83
2022-08-19T23:53:00.209Z,63.86
2022-08-19T23:55:32.362Z,63.92
2022-08-19T23:58:02.168Z,63.84
